createdAt,value
2022-08-26T05:04:33.953Z,16.93
2022-08-26T05:07:03.376Z,17.04
2022-08-26T05:09:32.167Z,17.23
2022-08-26T05:12:00.966Z,17.40
2022-08-26T05:14:29.885Z,17.55
2022-08-26T05:16:59.161Z,17.70
2022-08-26T05:19:28.055Z,17.85
2022-08-26T05:21:56.941Z,18.01
2022-08-26T05:24:25.849Z,18.19
2022-08-26T05:26:56.447Z,18.33
2022-08-26T05:29:25.450Z,18.48
2022-08-26T05:31:55.956Z,18.63
2022-08-26T05:34:25.731Z,18.78
2022-08-26T05:36:59.792Z,18.92
2022-08-26T05:39:28.815Z,19.04
2022-08-26T05:41:57.494Z,19.19
2022-08-26T05:44:26.279Z,19.36
2022-08-26T05:46:54.967Z,19.53
2022-08-26T05:49:26.410Z,19.72
2022-08-26T05:51:55.737Z,19.90
2022-08-26T05:54:24.615Z,20.11
2022-08-26T05:56:53.513Z,20.26
2022-08-26T05:59:24.654Z,20.44
2022-08-26T06:01:57.483Z,20.62
2022-08-26T06:04:29.148Z,20.77
2022-08-26T06:06:59.627Z,20.87
2022-08-26T06:09:28.442Z,20.99
2022-08-26T06:11:59.369Z,21.10
2022-08-26T06:14:28.129Z,21.16
2022-08-26T06:16:58.047Z,21.27
2022-08-26T06:19:32.651Z,21.32
2022-08-26T06:22:23.275Z,21.41
2022-08-26T06:25:11.118Z,21.54
2022-08-26T06:27:39.767Z,21.67
2022-08-26T06:30:10.119Z,21.74
2022-08-26T06:32:39.123Z,21.82
2022-08-26T06:35:12.239Z,21.89
2022-08-26T06:37:41.508Z,21.97
2022-08-26T06:40:11.444Z,22.08
2022-08-26T06:42:40.426Z,22.14
2022-08-26T06:45:09.587Z,22.24
2022-08-26T06:47:39.869Z,22.36
2022-08-26T06:50:09.075Z,22.49
2022-08-26T06:52:37.928Z,22.62
2022-08-26T06:55:07.554Z,22.75
2022-08-26T06:57:37.690Z,22.85
2022-08-26T07:00:10.965Z,22.91
2022-08-26T07:02:39.845Z,22.97
2022-08-26T07:05:09.402Z,23.06
2022-08-26T07:07:38.619Z,23.16
2022-08-26T07:10:08.945Z,23.30
2022-08-26T07:12:37.527Z,23.46
2022-08-26T07:15:07.474Z,23.56
2022-08-26T07:17:37.066Z,23.65
2022-08-26T07:20:10.180Z,23.70
2022-08-26T07:22:39.781Z,23.77
2022-08-26T07:25:11.761Z,23.78
2022-08-26T07:27:41.162Z,23.88
2022-08-26T07:30:10.760Z,24.05
2022-08-26T07:32:43.759Z,24.22
2022-08-26T07:35:12.376Z,24.30
2022-08-26T07:37:41.101Z,24.42
2022-08-26T07:40:10.435Z,24.57
2022-08-26T07:42:39.992Z,24.71
2022-08-26T07:45:09.276Z,24.80
2022-08-26T07:47:38.026Z,24.88
2022-08-26T07:50:07.180Z,24.98
2022-08-26T07:52:37.904Z,25.09
2022-08-26T07:55:10.153Z,25.19
2022-08-26T07:57:39.973Z,25.25
2022-08-26T08:00:13.151Z,25.37
2022-08-26T08:02:47.089Z,25.47
2022-08-26T08:05:18.920Z,25.46
2022-08-26T08:07:48.927Z,25.52
2022-08-26T08:10:26.685Z,25.58
2022-08-26T08:12:57.764Z,25.69
2022-08-26T08:15:31.401Z,25.81
2022-08-26T08:18:01.091Z,25.90
2022-08-26T08:20:30.787Z,26.03
2022-08-26T08:23:02.166Z,26.16
2022-08-26T08:25:32.707Z,26.28
2022-08-26T08:28:01.442Z,26.35
2022-08-26T13:02:37.969Z,37.90
2022-08-26T13:05:07.464Z,38.17
2022-08-26T13:07:36.754Z,37.78
2022-08-26T13:10:06.092Z,38.00
2022-08-26T13:12:37.637Z,37.96
2022-08-26T13:15:07.942Z,37.83
2022-08-26T13:17:36.929Z,37.50
2022-08-26T13:20:06.516Z,37.80
2022-08-26T13:22:35.251Z,37.28
2022-08-26T13:25:04.612Z,37.48
2022-08-26T13:27:33.439Z,37.85
2022-08-26T13:30:02.429Z,38.09
2022-08-26T13:32:32.978Z,37.92
2022-08-26T13:35:05.572Z,37.98
2022-08-26T13:37:35.624Z,37.78
2022-08-26T13:40:07.472Z,37.46
2022-08-26T13:42:36.337Z,37.20
2022-08-26T13:45:06.357Z,37.10
2022-08-26T13:47:35.061Z,36.79
2022-08-26T13:50:05.862Z,36.73
2022-08-26T13:52:34.698Z,36.70
2022-08-26T13:55:04.057Z,36.44
2022-08-26T13:57:32.976Z,36.82
2022-08-26T14:00:01.585Z,36.58
2022-08-26T14:02:38.286Z,36.99
2022-08-26T14:05:08.580Z,37.05
2022-08-26T14:07:37.401Z,36.88
2022-08-26T14:10:07.511Z,36.73
2022-08-26T14:12:36.129Z,36.47
2022-08-26T14:15:05.358Z,36.55
2022-08-26T14:17:34.115Z,36.40
2022-08-26T14:20:04.876Z,36.56
2022-08-26T14:22:34.340Z,36.50
2022-08-26T14:25:03.126Z,36.50
2022-08-26T14:27:31.689Z,37.15
2022-08-26T14:30:00.392Z,37.60
2022-08-26T14:32:30.091Z,37.57
2022-08-26T14:34:58.902Z,37.22
2022-08-26T14:37:27.984Z,36.45
2022-08-26T14:39:57.230Z,36.13
2022-08-26T14:42:31.428Z,35.74
2022-08-26T14:45:04.406Z,35.38
2022-08-26T14:47:33.041Z,35.09
2022-08-26T14:50:01.961Z,34.90
2022-08-26T14:52:50.631Z,35.04
2022-08-26T14:55:19.441Z,34.82
2022-08-26T14:57:48.911Z,34.61
2022-08-26T15:00:19.136Z,34.76
2022-08-26T15:02:48.064Z,34.75
2022-08-26T15:05:17.006Z,34.61
2022-08-26T15:07:46.177Z,34.38
2022-08-26T15:10:17.167Z,34.31
2022-08-26T15:12:47.082Z,34.09
2022-08-26T15:15:18.716Z,33.78
2022-08-26T15:17:48.037Z,33.69
2022-08-26T15:20:18.287Z,33.69
2022-08-26T15:22:47.657Z,33.85
2022-08-26T15:25:17.660Z,33.83
2022-08-26T15:27:46.501Z,34.02
2022-08-26T15:30:16.977Z,33.80
2022-08-26T15:32:45.999Z,33.86
2022-08-26T15:35:15.090Z,33.66
2022-08-26T15:37:43.897Z,33.63
2022-08-26T15:40:12.881Z,33.52
2022-08-26T15:42:41.690Z,33.55
2022-08-26T15:45:11.356Z,33.42
2022-08-26T15:48:10.888Z,33.44
2022-08-26T15:50:54.008Z,33.48
2022-08-26T15:53:24.520Z,33.37
2022-08-26T15:55:58.061Z,33.34
2022-08-26T15:58:29.246Z,33.19
2022-08-26T16:00:58.172Z,32.96
2022-08-26T16:03:26.948Z,32.88
2022-08-26T16:05:55.726Z,32.79
2022-08-26T16:08:24.861Z,32.60
2022-08-26T16:10:58.040Z,32.51
2022-08-26T16:13:26.938Z,32.49
2022-08-26T16:16:08.757Z,32.42
2022-08-26T16:18:37.932Z,32.28
2022-08-26T16:21:13.880Z,32.12
2022-08-26T16:23:45.331Z,31.88
2022-08-26T16:26:22.826Z,31.69
2022-08-26T16:28:53.293Z,31.51
2022-08-26T16:31:23.006Z,31.32
2022-08-26T16:33:52.160Z,31.19
2022-08-26T16:36:20.935Z,31.03
2022-08-26T16:38:56.577Z,30.89
2022-08-26T16:41:29.721Z,30.75
2022-08-26T16:43:59.306Z,30.55
2022-08-26T16:46:29.395Z,30.40
2022-08-26T16:48:59.329Z,30.24
2022-08-26T16:51:28.690Z,30.10
2022-08-26T16:53:59.167Z,29.93
2022-08-26T16:56:34.115Z,29.79
2022-08-26T16:59:06.049Z,29.67
2022-08-26T17:01:35.105Z,29.54
2022-08-26T17:04:04.709Z,29.40
2022-08-26T17:06:34.497Z,29.24
2022-08-26T17:09:03.581Z,29.10
2022-08-26T17:11:32.310Z,28.90
2022-08-26T17:14:01.554Z,28.71
2022-08-26T17:16:30.573Z,28.56
2022-08-26T17:19:00.738Z,28.41
2022-08-26T17:21:29.876Z,28.27
2022-08-26T17:23:58.649Z,28.11
2022-08-26T17:26:28.369Z,27.99
2022-08-26T17:28:57.144Z,27.85
2022-08-26T17:31:27.158Z,27.72
2022-08-26T17:33:56.187Z,27.59
2022-08-26T17:36:27.850Z,27.47
2022-08-26T17:38:58.997Z,27.36
2022-08-26T17:41:27.942Z,27.22
2022-08-26T17:43:56.678Z,27.12
2022-08-26T17:46:25.587Z,27.03
2022-08-26T17:48:55.461Z,26.92
2022-08-26T17:51:24.322Z,26.85
2022-08-26T17:53:53.483Z,26.75
2022-08-26T17:56:27.602Z,26.68
2022-08-26T17:59:02.347Z,26.55
2022-08-26T18:01:33.199Z,26.51
2022-08-26T18:04:03.938Z,26.43
2022-08-26T18:06:33.438Z,26.35
2022-08-26T18:09:02.258Z,26.27
2022-08-26T18:11:31.514Z,26.21
2022-08-26T18:14:00.597Z,26.10
2022-08-26T18:16:32.010Z,26.01
2022-08-26T18:19:01.521Z,25.89
2022-08-26T18:21:30.414Z,25.76
2022-08-26T18:23:59.722Z,25.63
2022-08-26T18:26:36.273Z,25.50
2022-08-26T18:29:07.379Z,25.34
2022-08-26T18:31:36.202Z,25.22
2022-08-26T18:34:06.158Z,25.14
2022-08-26T18:36:37.507Z,25.03
2022-08-26T18:39:08.895Z,24.92
2022-08-26T18:41:49.420Z,24.83
2022-08-26T18:44:21.661Z,24.63
2022-08-26T18:46:52.134Z,24.55
2022-08-26T18:49:22.369Z,24.48
2022-08-26T18:51:52.663Z,24.36
2022-08-26T18:54:22.108Z,24.25
2022-08-26T18:56:50.962Z,24.17
2022-08-26T18:59:19.890Z,24.09
2022-08-26T19:01:59.709Z,23.99
2022-08-26T19:04:28.625Z,23.87
2022-08-26T19:06:57.295Z,23.74
2022-08-26T19:09:27.305Z,23.64
2022-08-26T19:14:31.411Z,23.51
2022-08-26T19:17:00.706Z,23.47
2022-08-26T19:19:29.892Z,23.45
2022-08-26T19:21:58.643Z,23.40
2022-08-26T19:24:28.359Z,23.36
2022-08-26T19:27:01.552Z,23.28
2022-08-26T19:29:35.858Z,23.18
2022-08-26T19:32:05.149Z,23.09
2022-08-26T19:34:34.579Z,23.02
2022-08-26T19:37:03.307Z,22.98
2022-08-26T19:39:31.892Z,22.96
2022-08-26T19:42:00.662Z,22.92
2022-08-26T19:44:48.042Z,22.91
2022-08-26T19:47:16.921Z,22.88
2022-08-26T19:49:46.122Z,22.81
2022-08-26T19:52:14.833Z,22.77
2022-08-26T19:54:44.640Z,22.72
2022-08-26T19:57:13.476Z,22.63
2022-08-26T19:59:42.665Z,22.56
2022-08-26T20:02:11.626Z,22.54
2022-08-26T20:04:41.847Z,22.52
2022-08-26T20:07:13.035Z,22.52
2022-08-26T20:09:46.463Z,22.52
2022-08-26T20:12:16.120Z,22.52
2022-08-26T20:14:45.714Z,22.52
2022-08-26T20:17:16.240Z,22.48
2022-08-26T20:20:03.233Z,22.44
2022-08-26T20:22:33.121Z,22.38
2022-08-26T20:25:02.398Z,22.31
2022-08-26T20:27:37.789Z,22.18
2022-08-26T20:30:10.403Z,22.05
2022-08-26T20:32:40.233Z,21.94
2022-08-26T20:35:13.232Z,21.83
2022-08-26T20:37:42.492Z,21.75
2022-08-26T20:40:14.087Z,21.70
2022-08-26T20:42:43.017Z,21.62
2022-08-26T20:45:12.149Z,21.53
2022-08-26T20:47:43.944Z,21.48
2022-08-26T20:50:12.693Z,21.41
2022-08-26T20:52:41.391Z,21.36
2022-08-26T20:55:10.588Z,21.26
2022-08-26T20:57:39.404Z,21.11
2022-08-26T21:00:09.888Z,21.02
2022-08-26T21:02:38.640Z,21.03
2022-08-26T21:05:08.704Z,20.99
2022-08-26T21:07:37.539Z,20.96
2022-08-26T21:10:07.294Z,20.90
2022-08-26T21:12:36.173Z,20.83
2022-08-26T21:15:06.894Z,20.78
2022-08-26T21:17:35.562Z,20.76
2022-08-26T21:20:04.945Z,20.71
2022-08-26T21:22:34.747Z,20.69
2022-08-26T21:25:04.248Z,20.67
2022-08-26T21:27:35.245Z,20.63
2022-08-26T21:30:05.030Z,20.59
2022-08-26T21:32:33.747Z,20.56
2022-08-26T21:35:02.610Z,20.50
2022-08-26T21:37:31.638Z,20.49
2022-08-26T21:40:05.603Z,20.48
2022-08-26T21:42:35.932Z,20.44
2022-08-26T21:45:06.612Z,20.35
2022-08-26T21:47:35.365Z,20.28
2022-08-26T21:50:05.963Z,20.25
2022-08-26T21:52:35.093Z,20.19
2022-08-26T21:55:09.050Z,20.11
2022-08-26T21:57:38.420Z,20.09
2022-08-26T22:00:10.333Z,20.07
2022-08-26T22:02:39.449Z,20.03
2022-08-26T22:05:08.917Z,20.00
2022-08-26T22:07:37.878Z,20.00
2022-08-26T22:10:08.363Z,19.96
2022-08-26T22:12:37.406Z,19.93
2022-08-26T22:15:07.499Z,19.92
2022-08-26T22:17:36.416Z,20.00
2022-08-26T22:20:07.753Z,20.00
2022-08-26T22:22:46.187Z,19.98
2022-08-26T22:25:14.866Z,19.92
2022-08-26T22:27:43.741Z,19.85
2022-08-26T22:30:13.667Z,19.83
2022-08-26T22:32:45.056Z,19.81
2022-08-26T22:35:16.693Z,19.78
2022-08-26T22:37:59.526Z,19.69
2022-08-26T22:40:28.747Z,19.62
2022-08-26T22:42:59.978Z,19.65
2022-08-26T22:45:33.253Z,19.66
2022-08-26T22:48:05.092Z,19.63
2022-08-26T22:50:34.000Z,19.57
2022-08-26T22:53:03.172Z,19.55
2022-08-26T22:55:32.082Z,19.57
2022-08-26T22:58:01.073Z,19.63
2022-08-26T23:00:32.299Z,19.69
2022-08-26T23:03:02.832Z,19.73
2022-08-26T23:05:32.741Z,19.77
2022-08-26T23:08:02.655Z,19.79
2022-08-26T23:10:33.271Z,19.81
2022-08-26T23:13:04.161Z,19.82
2022-08-26T23:15:33.147Z,19.81
2022-08-26T23:18:02.887Z,19.83
2022-08-26T23:20:32.857Z,19.82
2022-08-26T23:23:02.267Z,19.79
2022-08-26T23:25:32.810Z,19.75
2022-08-26T23:28:02.693Z,19.71
2022-08-26T23:30:34.620Z,19.68
2022-08-26T23:33:03.580Z,19.64
2022-08-26T23:35:32.575Z,19.57
2022-08-26T23:38:02.163Z,19.53
2022-08-26T23:40:37.164Z,19.48
2022-08-26T23:43:09.786Z,19.48
2022-08-26T23:45:39.577Z,19.48
2022-08-26T23:48:08.879Z,19.48
2022-08-26T23:50:56.335Z,19.39
2022-08-26T23:53:25.229Z,19.39
2022-08-26T23:55:54.532Z,19.31
2022-08-26T23:58:23.626Z,19.26
